Doe Hill, VA (24433)

4:01 AM EST on December 07, 2016 (GMT -0500)
KVAMONTE3 | | Change Station

Elev 2924 ft 38.41 °N, 79.58 °W | Updated 36 seconds ago

Mostly Cloudy
Mostly Cloudy
39.1 °F
Feels Like 35 °F
N
5.0
Wind Variable Wind from WNW
Gusts 5.0 mph

Today
High -- | Low -- °F
--% Chance of Precip.
Yesterday
High -- | Low -- °F
Precip. -- in
Pressure 29.94 in
Visibility 1.8 miles
Clouds Scattered Clouds 900 ft
Mostly Cloudy 4200 ft
Windchill 35 °F
Dew Point 34 °F
Humidity 82%
Rainfall 0.00 in
Snow Depth Not available.
7:22 AM 4:56 PM
Waxing Crescent, 50% visible
METAR KSHD 070855Z AUTO 00000KT 1 3/4SM BR SCT009 BKN042 01/01 A2994 RMK AO2 T00100009
Pressure 29.94 in
Visibility 1.8 miles
Clouds Scattered Clouds 900 ft
Mostly Cloudy 4200 ft
Windchill 35 °F
Dew Point 34 °F
Humidity 82%
Rainfall 0.00 in
Snow Depth Not available.
7:22 AM 4:56 PM
Waxing Crescent, 50% visible
METAR KSHD 070855Z AUTO 00000KT 1 3/4SM BR SCT009 BKN042 01/01 A2994 RMK AO2 T00100009

10-Day Weather Forecast

Almanac

Astronomy

Dec. 07, 2016 Rise Set
Actual Time
Civil Twilight
Nautical Twilight
Astronomical Twilight
Moon
Length of Visible Light
Length of Day
Tomorrow will be .
, % of the Moon is Illuminated

Today's Extremes

State Highs State Lows

Community

WunderPhotos

Upload Photos

1,956,104 photos uploaded!

WunderBlog® & News

Nearby

Air Quality

  Air Quality AQ Index Pollutant
Not available.

Snow Depth

Station Depth Elevation

Earthquake Activity

City Distance Mag. Time & Date
Minimum magnitude displayed is 2.5.

Coastal Water Temperatures

Place Temperature

Stations

Nearby Weather Stations

Station Location Temp. Windchill Dew Point Humidity Wind Precip. Elev Updated Type
                   

Watches & Warnings

There are currently no watches in effect.